createdAt,value
2022-10-24T00:01:02.376Z,8.30
2022-10-24T00:06:12.591Z,8.20
2022-10-24T00:11:22.480Z,8.00
2022-10-24T00:16:29.934Z,8.00
2022-10-24T00:21:37.130Z,7.60
2022-10-24T00:26:44.829Z,8.30
2022-10-24T00:31:51.970Z,7.70
2022-10-24T00:36:59.054Z,7.80
2022-10-24T00:42:06.927Z,6.70
2022-10-24T00:47:18.143Z,6.60
2022-10-24T00:52:29.457Z,6.20
2022-10-24T00:57:42.413Z,6.50
2022-10-24T01:02:50.370Z,6.80
2022-10-24T01:08:11.208Z,6.90
2022-10-24T01:13:28.928Z,6.40
2022-10-24T01:18:40.797Z,6.50
2022-10-24T01:29:10.009Z,7.10
2022-10-24T01:34:26.086Z,7.40
2022-10-24T01:39:38.636Z,8.00
2022-10-24T01:44:51.027Z,9.00
2022-10-24T01:50:02.506Z,8.10
2022-10-24T01:55:11.445Z,9.50
2022-10-24T02:00:23.279Z,8.50
2022-10-24T02:05:34.289Z,9.60
2022-10-24T02:10:46.516Z,8.10
2022-10-24T02:15:57.287Z,9.00
2022-10-24T02:21:17.731Z,8.80
2022-10-24T02:26:33.033Z,9.10
2022-10-24T02:31:44.602Z,9.30
2022-10-24T02:36:55.147Z,9.80
2022-10-24T02:42:04.348Z,10.40
2022-10-24T02:47:14.571Z,10.00
2022-10-24T02:52:21.566Z,9.90
2022-10-24T02:57:28.860Z,9.80
2022-10-24T03:02:36.114Z,11.40
2022-10-24T03:07:43.306Z,11.80
2022-10-24T03:12:50.384Z,10.70
2022-10-24T03:17:57.706Z,11.10
2022-10-24T03:23:04.692Z,12.50
2022-10-24T03:28:12.126Z,12.30
2022-10-24T03:33:19.651Z,12.40
2022-10-24T03:38:27.374Z,12.50
2022-10-24T03:43:34.694Z,13.40
2022-10-24T03:48:41.523Z,12.60
2022-10-24T03:53:48.929Z,11.70
2022-10-24T03:58:55.947Z,12.30
2022-10-24T04:04:03.135Z,12.30
2022-10-24T04:09:10.367Z,12.10
2022-10-24T04:14:17.760Z,12.70
2022-10-24T04:19:24.931Z,12.80
2022-10-24T04:24:32.244Z,12.70
2022-10-24T04:29:39.648Z,14.90
2022-10-24T04:34:47.127Z,13.50
2022-10-24T04:39:55.483Z,14.50
2022-10-24T04:45:02.928Z,15.90
2022-10-24T04:50:12.138Z,14.70
2022-10-24T04:55:20.233Z,14.90
2022-10-24T05:00:28.236Z,14.20
2022-10-24T05:05:35.918Z,15.40
2022-10-24T05:10:43.010Z,14.50
2022-10-24T05:15:50.069Z,15.00
2022-10-24T05:21:00.119Z,15.40
2022-10-24T05:26:07.747Z,15.00
2022-10-24T05:31:15.359Z,13.60
2022-10-24T05:36:22.745Z,14.20
2022-10-24T05:41:30.644Z,14.50
2022-10-24T05:46:37.991Z,14.00
2022-10-24T05:51:45.206Z,14.00
2022-10-24T05:56:52.582Z,13.80
2022-10-24T06:01:59.906Z,14.30
2022-10-24T06:07:07.382Z,13.90
2022-10-24T06:12:15.434Z,13.30
2022-10-24T06:17:22.733Z,12.60
2022-10-24T06:22:30.890Z,12.70
2022-10-24T06:27:37.928Z,13.10
2022-10-24T06:32:46.311Z,13.60
2022-10-24T06:37:54.184Z,14.20
2022-10-24T06:43:02.851Z,13.20
2022-10-24T06:48:11.201Z,12.90
2022-10-24T06:58:34.486Z,13.20
2022-10-24T07:03:41.972Z,13.90
2022-10-24T07:08:50.008Z,14.00
2022-10-24T07:14:00.778Z,13.00
2022-10-24T07:19:09.949Z,12.70
2022-10-24T07:24:17.654Z,12.70
2022-10-24T07:29:25.055Z,12.90
2022-10-24T07:34:32.786Z,12.40
2022-10-24T07:39:40.293Z,12.40
2022-10-24T07:44:48.080Z,12.00
2022-10-24T07:49:56.997Z,13.00
2022-10-24T07:55:04.548Z,12.30
2022-10-24T08:00:14.676Z,12.80
2022-10-24T08:05:23.135Z,12.40
2022-10-24T08:10:30.390Z,12.30
2022-10-24T08:15:38.187Z,13.60
2022-10-24T08:20:45.598Z,13.40
2022-10-24T08:25:52.711Z,13.00
2022-10-24T08:31:04.787Z,12.30
2022-10-24T08:36:29.437Z,12.80
2022-10-24T08:41:41.481Z,12.90
2022-10-24T08:46:53.509Z,13.70
2022-10-24T08:52:03.559Z,13.00
2022-10-24T08:57:17.824Z,12.60
2022-10-24T09:02:28.231Z,13.50
2022-10-24T09:07:35.831Z,13.40
2022-10-24T09:12:43.347Z,14.10
2022-10-24T09:17:51.619Z,15.00
2022-10-24T09:23:03.635Z,15.20
2022-10-24T09:33:27.778Z,15.00
2022-10-24T09:38:37.886Z,15.80
2022-10-24T09:43:53.686Z,15.70
2022-10-24T09:49:03.577Z,18.50
2022-10-24T09:54:28.136Z,17.10
2022-10-24T09:59:44.424Z,15.70
2022-10-24T10:05:11.608Z,18.50
2022-10-24T10:10:33.325Z,18.70
2022-10-24T10:15:46.647Z,20.10
2022-10-24T10:21:08.623Z,20.70
2022-10-24T10:26:25.171Z,19.70
2022-10-24T10:31:41.873Z,20.00
2022-10-24T10:37:01.342Z,22.30
2022-10-24T10:42:14.939Z,20.80
2022-10-24T10:47:35.824Z,22.10
2022-10-24T10:52:49.565Z,22.70
2022-10-24T10:58:11.081Z,25.20
2022-10-24T11:03:35.993Z,25.30
2022-10-24T11:09:08.323Z,25.60
2022-10-24T11:14:27.102Z,25.00
2022-10-24T11:19:43.124Z,26.20
2022-10-24T11:24:56.754Z,25.30
2022-10-24T11:30:13.853Z,25.60
2022-10-24T11:35:30.070Z,25.00
2022-10-24T11:40:39.282Z,24.20
2022-10-24T11:45:53.205Z,25.90
2022-10-24T11:51:10.126Z,24.90
2022-10-24T11:56:23.592Z,24.60
2022-10-24T12:01:54.809Z,24.50
2022-10-24T12:07:38.793Z,25.30
2022-10-24T12:13:12.577Z,24.70
2022-10-24T12:18:30.296Z,26.40
2022-10-24T12:23:38.071Z,27.10
2022-10-24T12:28:55.216Z,27.50
2022-10-24T12:34:48.917Z,26.50
2022-10-24T12:39:59.145Z,26.30
2022-10-24T12:45:32.158Z,26.70
2022-10-24T12:51:06.315Z,24.00
2022-10-24T13:01:35.071Z,22.90
2022-10-24T13:06:55.294Z,22.10
2022-10-24T13:12:18.222Z,22.60
2022-10-24T13:17:35.794Z,24.00
2022-10-24T13:22:43.642Z,23.10
2022-10-24T13:28:32.269Z,23.30
2022-10-24T13:33:47.954Z,20.00
2022-10-24T13:38:58.102Z,21.50
2022-10-24T13:44:09.401Z,22.90
2022-10-24T13:49:24.042Z,21.70
2022-10-24T13:54:36.224Z,22.30
2022-10-24T13:59:43.094Z,23.70
2022-10-24T14:04:56.074Z,21.30
2022-10-24T14:10:09.701Z,22.10
2022-10-24T14:15:23.341Z,23.90
2022-10-24T14:20:32.915Z,22.10
2022-10-24T14:25:41.375Z,22.70
2022-10-24T14:30:57.344Z,22.20
2022-10-24T14:36:06.064Z,21.40
2022-10-24T14:41:13.495Z,22.70
2022-10-24T14:46:38.699Z,20.70
2022-10-24T14:51:45.709Z,21.40
2022-10-24T14:56:54.845Z,20.70
2022-10-24T15:02:06.511Z,21.80
2022-10-24T15:07:31.964Z,21.90
2022-10-24T15:12:44.164Z,22.50
2022-10-24T15:17:52.187Z,23.00
2022-10-24T15:23:01.083Z,22.30
2022-10-24T15:28:09.060Z,23.80
2022-10-24T15:33:16.674Z,23.00
2022-10-24T15:38:23.545Z,24.10
2022-10-24T15:43:31.837Z,22.30
2022-10-24T15:48:39.658Z,23.70
2022-10-24T15:53:47.247Z,24.00
2022-10-24T15:58:56.577Z,23.90
2022-10-24T16:04:05.068Z,25.00
2022-10-24T16:09:18.296Z,24.10
2022-10-24T16:14:26.660Z,26.60
2022-10-24T16:19:34.223Z,25.50
2022-10-24T16:24:41.350Z,25.80
2022-10-24T16:29:48.909Z,26.30
2022-10-24T16:34:58.031Z,27.00
2022-10-24T16:40:06.274Z,26.90
2022-10-24T16:45:14.373Z,27.60
2022-10-24T16:50:26.596Z,27.50
2022-10-24T17:00:39.596Z,26.30
2022-10-24T17:05:49.775Z,27.80
2022-10-24T17:10:57.597Z,28.40
2022-10-24T17:16:09.400Z,27.70
2022-10-24T17:21:17.834Z,28.70
2022-10-24T17:26:25.353Z,30.50
2022-10-24T17:31:32.982Z,31.30
2022-10-24T17:36:41.916Z,29.50
2022-10-24T17:41:49.618Z,31.50
2022-10-24T17:46:58.493Z,31.30
2022-10-24T17:52:06.138Z,30.60
2022-10-24T17:57:13.319Z,30.00
2022-10-24T18:02:20.834Z,29.60
2022-10-24T18:07:28.549Z,28.60
2022-10-24T18:12:38.577Z,30.00
2022-10-24T18:17:46.102Z,28.60
2022-10-24T18:22:53.498Z,29.20
2022-10-24T18:28:00.616Z,29.70
2022-10-24T18:33:07.696Z,29.60
2022-10-24T18:38:19.192Z,29.60
2022-10-24T18:43:27.003Z,31.00
2022-10-24T18:48:35.568Z,30.60
2022-10-24T18:53:46.613Z,29.30
2022-10-24T18:58:57.948Z,29.60
2022-10-24T19:04:14.618Z,30.60
2022-10-24T19:09:24.075Z,29.70
2022-10-24T19:14:32.133Z,30.10
2022-10-24T19:19:39.949Z,29.20
2022-10-24T19:24:47.069Z,29.10
2022-10-24T19:29:53.976Z,29.60
2022-10-24T19:35:01.054Z,27.20
2022-10-24T19:40:11.115Z,28.30
2022-10-24T19:45:21.436Z,27.40
2022-10-24T19:50:32.385Z,27.30
2022-10-24T19:55:41.133Z,25.70
2022-10-24T20:00:48.367Z,26.50
2022-10-24T20:06:00.015Z,26.00
2022-10-24T20:11:08.295Z,25.10
2022-10-24T20:16:15.859Z,23.20
2022-10-24T20:21:23.404Z,20.90
2022-10-24T20:26:31.227Z,17.70
2022-10-24T20:31:40.255Z,19.10
2022-10-24T20:36:50.410Z,17.00
2022-10-24T20:41:58.218Z,18.10
2022-10-24T20:47:06.001Z,18.40
2022-10-24T20:52:13.951Z,18.80
2022-10-24T20:57:21.895Z,19.50
2022-10-24T21:02:56.309Z,19.50
2022-10-24T21:08:04.836Z,25.80
2022-10-24T21:13:12.692Z,19.20
2022-10-24T21:18:20.502Z,18.80
2022-10-24T21:23:28.706Z,18.70
2022-10-24T21:28:37.560Z,17.90
2022-10-24T21:33:45.920Z,18.00
2022-10-24T21:38:56.821Z,18.00
2022-10-24T21:44:04.829Z,18.20
2022-10-24T21:49:12.741Z,18.60
2022-10-24T21:54:23.480Z,18.70
2022-10-24T21:59:31.378Z,18.40
2022-10-24T22:04:38.572Z,18.50
2022-10-24T22:09:46.593Z,18.30
2022-10-24T22:14:54.416Z,18.30
2022-10-24T22:20:02.327Z,17.80
2022-10-24T22:25:11.328Z,17.20
2022-10-24T22:30:19.561Z,16.90
2022-10-24T22:35:28.203Z,18.50
2022-10-24T22:40:37.255Z,16.20
2022-10-24T22:45:50.907Z,16.70
2022-10-24T22:50:59.791Z,17.10
2022-10-24T22:56:17.674Z,19.00
2022-10-24T23:01:36.816Z,19.40
2022-10-24T23:06:50.320Z,20.10
